createdAt,value
2023-02-05T00:00:01.304Z,7.47
2023-02-05T00:02:27.929Z,7.78
2023-02-05T00:04:54.437Z,7.85
2023-02-05T00:07:20.931Z,7.40
2023-02-05T00:09:47.420Z,8.43
2023-02-05T00:12:14.008Z,8.25
2023-02-05T00:14:40.481Z,8.25
2023-02-05T00:17:07.013Z,7.90
2023-02-05T00:19:33.631Z,7.47
2023-02-05T00:22:00.128Z,7.65
2023-02-05T00:24:26.605Z,7.15
2023-02-05T00:26:53.093Z,7.15
2023-02-05T00:29:19.641Z,7.30
2023-02-05T00:31:49.502Z,8.23
2023-02-05T00:34:16.635Z,7.22
2023-02-05T00:36:43.178Z,7.05
2023-02-05T00:39:11.376Z,6.93
2023-02-05T00:41:38.523Z,7.32
2023-02-05T00:44:05.272Z,8.32
2023-02-05T00:46:31.835Z,7.38
2023-02-05T00:48:58.410Z,6.63
2023-02-05T00:51:25.027Z,7.97
2023-02-05T00:53:51.675Z,7.70
2023-02-05T00:56:18.138Z,6.85
2023-02-05T00:58:50.031Z,6.75
2023-02-05T01:01:16.849Z,7.15
2023-02-05T01:03:43.699Z,7.13
2023-02-05T01:06:10.232Z,7.30
2023-02-05T01:08:36.739Z,7.97
2023-02-05T01:11:08.043Z,7.68
2023-02-05T01:13:34.538Z,7.68
2023-02-05T01:16:01.119Z,7.43
2023-02-05T01:18:27.706Z,7.70
2023-02-05T01:20:54.247Z,7.82
2023-02-05T01:23:20.813Z,7.70
2023-02-05T01:25:47.742Z,7.15
2023-02-05T01:28:14.377Z,7.90
2023-02-05T01:30:40.971Z,7.00
2023-02-05T01:33:07.580Z,6.80
2023-02-05T01:35:34.381Z,6.82
2023-02-05T01:38:01.125Z,8.02
2023-02-05T01:40:27.678Z,7.30
2023-02-05T01:42:55.369Z,8.75
2023-02-05T01:45:21.789Z,8.20
2023-02-05T01:47:53.527Z,8.10
2023-02-05T01:50:51.164Z,7.68
2023-02-05T01:53:31.681Z,7.70
2023-02-05T01:56:01.426Z,7.38
2023-02-05T01:58:32.572Z,7.22
2023-02-05T02:00:59.741Z,6.80
2023-02-05T02:03:30.767Z,7.75
2023-02-05T02:05:57.625Z,6.82
2023-02-05T02:08:24.625Z,7.40
2023-02-05T02:10:53.522Z,6.47
2023-02-05T02:13:22.092Z,6.32
2023-02-05T02:15:50.257Z,7.07
2023-02-05T02:18:28.609Z,6.40
2023-02-05T02:21:23.211Z,6.13
2023-02-05T02:24:01.865Z,6.95
2023-02-05T02:26:52.992Z,6.85
2023-02-05T02:29:44.872Z,6.57
2023-02-05T02:32:51.833Z,7.10
2023-02-05T02:35:25.302Z,6.43
2023-02-05T02:40:43.878Z,6.72
2023-02-05T02:43:19.530Z,7.55
2023-02-05T02:45:52.341Z,7.15
2023-02-05T02:48:22.395Z,5.50
2023-02-05T02:50:52.138Z,7.65
2023-02-05T02:53:23.998Z,5.88
2023-02-05T02:55:52.134Z,7.00
2023-02-05T02:58:32.744Z,7.25
2023-02-05T03:01:03.634Z,8.77
2023-02-05T03:03:32.587Z,8.90
2023-02-05T03:06:01.552Z,8.93
2023-02-05T03:08:34.945Z,7.30
2023-02-05T03:11:02.638Z,8.80
2023-02-05T03:13:30.290Z,8.65
2023-02-05T03:15:56.873Z,9.10
2023-02-05T03:18:24.725Z,9.07
2023-02-05T03:20:56.478Z,8.52
2023-02-05T03:23:24.162Z,9.52
2023-02-05T03:25:50.697Z,8.95
2023-02-05T03:28:17.385Z,8.57
2023-02-05T03:30:59.422Z,9.23
2023-02-05T03:33:34.758Z,9.15
2023-02-05T03:36:13.710Z,8.95
2023-02-05T03:38:51.103Z,9.57
2023-02-05T03:41:54.572Z,9.77
2023-02-05T03:44:48.683Z,9.90
2023-02-05T03:49:53.585Z,9.00
2023-02-05T03:52:32.545Z,9.02
2023-02-05T03:55:28.298Z,10.63
2023-02-05T03:58:06.507Z,10.45
2023-02-05T04:00:34.520Z,11.10
2023-02-05T04:03:01.279Z,12.35
2023-02-05T04:05:27.805Z,10.65
2023-02-05T04:07:54.479Z,11.85
2023-02-05T04:10:20.942Z,10.63
2023-02-05T04:12:47.442Z,11.98
2023-02-05T04:15:14.083Z,9.57
2023-02-05T04:17:40.605Z,10.57
2023-02-05T04:20:08.571Z,8.70
2023-02-05T04:22:35.094Z,8.02
2023-02-05T04:25:01.710Z,7.88
2023-02-05T04:27:28.284Z,6.93
2023-02-05T04:29:54.786Z,7.93
2023-02-05T04:32:21.245Z,7.78
2023-02-05T04:34:47.789Z,12.30
2023-02-05T04:37:14.314Z,11.50
2023-02-05T04:39:40.819Z,12.32
2023-02-05T04:42:07.351Z,10.35
2023-02-05T04:44:33.802Z,10.55
2023-02-05T04:47:00.301Z,11.10
2023-02-05T04:49:26.844Z,9.45
2023-02-05T04:51:53.388Z,11.52
2023-02-05T04:54:19.909Z,11.52
2023-02-05T04:56:46.966Z,8.50
2023-02-05T04:59:13.617Z,13.40
2023-02-05T05:01:40.888Z,14.70
2023-02-05T05:04:07.563Z,14.77
2023-02-05T05:06:34.108Z,15.63
2023-02-05T05:09:00.616Z,14.73
2023-02-05T05:11:27.112Z,15.70
2023-02-05T05:13:53.667Z,15.18
2023-02-05T05:16:20.273Z,16.25
2023-02-05T05:18:46.933Z,12.95
2023-02-05T05:21:13.457Z,13.55
2023-02-05T05:23:39.971Z,15.52
2023-02-05T05:26:08.664Z,15.15
2023-02-05T05:28:36.014Z,16.13
2023-02-05T05:31:14.373Z,15.52
2023-02-05T05:33:40.865Z,15.80
2023-02-05T05:36:08.208Z,14.82
2023-02-05T05:38:35.268Z,15.07
2023-02-05T05:41:20.171Z,14.10
2023-02-05T05:43:47.470Z,15.52
2023-02-05T05:46:25.800Z,14.02
2023-02-05T05:48:55.077Z,15.57
2023-02-05T05:51:22.599Z,14.65
2023-02-05T05:53:49.626Z,15.10
2023-02-05T05:56:17.520Z,14.75
2023-02-05T05:58:44.823Z,14.52
2023-02-05T06:01:13.379Z,13.23
2023-02-05T06:03:39.881Z,15.18
2023-02-05T06:06:08.343Z,15.85
2023-02-05T06:08:35.223Z,14.20
2023-02-05T06:11:02.018Z,14.15
2023-02-05T06:13:28.691Z,14.88
2023-02-05T06:15:55.354Z,13.30
2023-02-05T06:18:23.698Z,13.48
2023-02-05T06:20:50.531Z,13.82
2023-02-05T06:23:17.220Z,13.80
2023-02-05T06:25:43.736Z,12.57
2023-02-05T06:28:10.264Z,12.55
2023-02-05T06:30:36.966Z,13.73
2023-02-05T06:33:03.620Z,13.38
2023-02-05T06:35:30.101Z,12.38
2023-02-05T06:37:56.633Z,12.90
2023-02-05T06:40:25.818Z,13.18
2023-02-05T06:42:53.170Z,11.50
2023-02-05T06:45:19.783Z,12.95
2023-02-05T06:47:46.355Z,13.25
2023-02-05T06:50:13.467Z,12.18
2023-02-05T06:52:39.973Z,12.10
2023-02-05T06:55:06.889Z,12.13
2023-02-05T06:57:33.826Z,11.88
2023-02-05T07:00:00.633Z,11.75
2023-02-05T07:02:27.487Z,12.10
2023-02-05T07:04:53.960Z,11.02
2023-02-05T07:07:20.419Z,11.63
2023-02-05T07:09:46.858Z,12.18
2023-02-05T07:12:13.377Z,10.88
2023-02-05T07:14:40.629Z,11.13
2023-02-05T07:17:07.676Z,9.38
2023-02-05T07:19:35.328Z,9.82
2023-02-05T07:22:02.021Z,9.82
2023-02-05T07:24:28.525Z,11.02
2023-02-05T07:26:54.996Z,10.15
2023-02-05T07:29:21.533Z,10.63
2023-02-05T07:31:52.249Z,11.25
2023-02-05T07:34:19.246Z,10.48
2023-02-05T07:36:45.709Z,10.07
2023-02-05T07:39:12.233Z,9.05
2023-02-05T07:41:38.844Z,9.82
2023-02-05T07:44:05.416Z,10.43
2023-02-05T07:46:32.100Z,9.60
2023-02-05T07:48:58.659Z,9.20
2023-02-05T07:51:26.382Z,7.80
2023-02-05T07:53:53.317Z,8.50
2023-02-05T07:56:23.158Z,8.43
2023-02-05T07:58:49.680Z,7.43
2023-02-05T08:01:16.428Z,7.40
2023-02-05T08:03:43.262Z,8.25
2023-02-05T08:06:14.019Z,8.35
2023-02-05T08:08:40.628Z,8.18
2023-02-05T08:11:07.405Z,8.60
2023-02-05T08:13:34.878Z,8.40
2023-02-05T08:16:05.805Z,9.10
2023-02-05T08:18:32.377Z,8.90
2023-02-05T08:20:58.934Z,9.07
2023-02-05T08:23:25.909Z,8.88
2023-02-05T08:25:56.748Z,9.57
2023-02-05T08:28:24.775Z,8.35
2023-02-05T08:30:51.695Z,8.85
2023-02-05T08:33:18.467Z,8.52
2023-02-05T08:35:44.991Z,8.65
2023-02-05T08:38:11.532Z,8.18
2023-02-05T08:40:38.138Z,9.50
2023-02-05T08:43:04.855Z,9.15
2023-02-05T08:45:31.528Z,8.70
2023-02-05T08:47:58.270Z,8.63
2023-02-05T08:50:26.023Z,9.10
2023-02-05T08:52:52.657Z,8.70
2023-02-05T08:55:19.371Z,10.20
2023-02-05T08:57:46.304Z,8.68
2023-02-05T09:00:15.128Z,9.30
2023-02-05T09:02:43.336Z,8.50
2023-02-05T09:05:10.398Z,8.77
2023-02-05T09:07:41.169Z,9.90
2023-02-05T09:10:09.912Z,9.70
2023-02-05T09:12:36.665Z,9.70
2023-02-05T09:15:03.491Z,10.00
2023-02-05T09:17:29.932Z,8.20
2023-02-05T09:19:56.551Z,9.45
2023-02-05T09:22:23.014Z,10.07
2023-02-05T09:24:49.600Z,10.75
2023-02-05T09:27:16.173Z,10.32
2023-02-05T09:29:42.688Z,10.25
2023-02-05T09:32:09.192Z,9.88
2023-02-05T09:34:35.699Z,10.90
2023-02-05T09:37:02.235Z,9.80
2023-02-05T09:40:12.332Z,11.75
2023-02-05T09:42:23.383Z,10.30
2023-02-05T09:45:32.800Z,10.45
2023-02-05T09:48:22.594Z,10.65
2023-02-05T09:50:50.296Z,10.35
2023-02-05T09:53:19.383Z,11.48
2023-02-05T09:55:47.346Z,11.25
2023-02-05T09:58:31.035Z,10.65
2023-02-05T10:03:32.380Z,10.68
2023-02-05T10:06:21.280Z,9.65
2023-02-05T10:09:32.456Z,10.65
2023-02-05T10:12:21.265Z,11.93
2023-02-05T10:15:06.121Z,11.50
2023-02-05T10:18:04.871Z,12.40
2023-02-05T10:20:45.189Z,11.00
2023-02-05T10:23:27.610Z,11.60
2023-02-05T10:26:01.453Z,10.57
2023-02-05T10:28:37.123Z,10.65
2023-02-05T10:31:25.341Z,10.75
2023-02-05T10:33:57.303Z,11.52
2023-02-05T10:36:29.046Z,11.40
2023-02-05T10:38:56.860Z,11.20
2023-02-05T10:42:01.655Z,11.35
2023-02-05T10:44:36.545Z,11.07
2023-02-05T10:47:12.438Z,10.98
2023-02-05T10:49:58.103Z,9.88
2023-02-05T10:52:24.729Z,11.52
2023-02-05T10:54:51.842Z,10.75
2023-02-05T10:57:20.595Z,10.65
2023-02-05T10:59:56.936Z,11.23
2023-02-05T11:02:32.754Z,10.20
2023-02-05T11:05:06.362Z,10.77
2023-02-05T11:10:23.118Z,10.45
2023-02-05T11:12:57.081Z,10.30
2023-02-05T11:15:29.281Z,9.38
2023-02-05T11:18:00.696Z,10.25
2023-02-05T11:20:30.996Z,10.30
2023-02-05T11:23:06.262Z,10.68
2023-02-05T11:25:32.777Z,10.13
2023-02-05T11:28:01.929Z,10.98
2023-02-05T11:30:56.040Z,10.75
2023-02-05T11:33:24.775Z,10.20
2023-02-05T11:35:58.191Z,10.68
2023-02-05T11:41:00.102Z,10.55
2023-02-05T11:43:31.388Z,10.13
2023-02-05T11:45:59.973Z,10.23
2023-02-05T11:48:39.103Z,11.95
2023-02-05T11:51:09.362Z,10.77
2023-02-05T11:53:38.581Z,10.82
2023-02-05T11:56:11.715Z,12.20
2023-02-05T11:58:38.734Z,11.40
2023-02-05T12:01:21.455Z,11.68
2023-02-05T12:04:01.377Z,12.27
2023-02-05T12:06:37.468Z,12.25
2023-02-05T12:09:04.574Z,13.02
2023-02-05T12:12:04.361Z,13.65
2023-02-05T12:14:44.639Z,12.88
2023-02-05T12:17:19.932Z,13.45
2023-02-05T12:19:58.069Z,13.82
2023-02-05T12:22:36.482Z,12.80
2023-02-05T12:25:36.764Z,13.18
2023-02-05T12:28:42.282Z,16.10
2023-02-05T12:31:22.285Z,15.25
2023-02-05T12:34:24.663Z,15.70
2023-02-05T12:37:01.214Z,14.82
2023-02-05T12:39:34.523Z,14.93
2023-02-05T12:42:20.008Z,13.43
2023-02-05T12:44:55.346Z,14.93
2023-02-05T12:47:37.072Z,14.82
2023-02-05T12:50:22.524Z,14.00
2023-02-05T12:53:18.286Z,14.65
2023-02-05T12:56:22.102Z,15.52
2023-02-05T12:59:01.057Z,13.80
2023-02-05T13:01:42.852Z,14.45
2023-02-05T13:04:33.797Z,13.75
2023-02-05T13:07:19.024Z,12.93
2023-02-05T13:09:51.041Z,13.55
2023-02-05T13:12:23.272Z,13.13
2023-02-05T13:15:12.121Z,14.38
2023-02-05T13:17:45.524Z,12.95
2023-02-05T13:20:44.268Z,13.85
2023-02-05T13:23:29.390Z,13.40
2023-02-05T13:26:08.927Z,12.52
2023-02-05T13:28:49.748Z,13.38
2023-02-05T13:31:21.550Z,12.93
2023-02-05T13:33:49.135Z,12.38
2023-02-05T13:36:24.347Z,13.27
2023-02-05T13:38:54.079Z,12.32
2023-02-05T13:42:14.205Z,13.68
2023-02-05T13:45:05.737Z,10.82
2023-02-05T13:48:06.062Z,11.35
2023-02-05T13:50:54.439Z,11.27
2023-02-05T13:53:32.449Z,10.00
2023-02-05T13:56:20.215Z,10.85
2023-02-05T13:58:56.450Z,11.48
2023-02-05T14:01:34.596Z,10.30
2023-02-05T14:04:21.802Z,10.68
2023-02-05T14:07:04.304Z,11.20
2023-02-05T14:09:38.811Z,10.40
2023-02-05T14:12:10.406Z,10.88
2023-02-05T14:14:39.369Z,10.45
2023-02-05T14:17:38.263Z,7.82
2023-02-05T14:20:24.752Z,5.07
2023-02-05T14:23:00.903Z,4.38
2023-02-05T14:25:38.027Z,4.95
2023-02-05T14:28:17.007Z,4.75
2023-02-05T14:30:51.921Z,5.13
2023-02-05T14:33:37.261Z,4.53
2023-02-05T14:36:16.927Z,4.40
2023-02-05T14:38:46.095Z,5.15
2023-02-05T14:41:20.096Z,4.78
2023-02-05T14:44:01.902Z,4.68
2023-02-05T14:46:37.444Z,5.47
2023-02-05T14:49:07.613Z,4.88
2023-02-05T14:51:42.130Z,6.03
2023-02-05T14:54:19.003Z,5.28
2023-02-05T14:56:48.798Z,6.30
2023-02-05T14:59:41.489Z,6.20
2023-02-05T15:02:45.620Z,6.03
2023-02-05T15:05:39.177Z,5.72
2023-02-05T15:08:08.740Z,5.10
2023-02-05T15:10:45.351Z,5.25
2023-02-05T15:13:19.545Z,5.00
2023-02-05T15:16:07.795Z,5.90
2023-02-05T15:18:39.645Z,6.70
2023-02-05T15:21:07.794Z,6.22
2023-02-05T15:23:42.401Z,6.65
2023-02-05T15:26:21.124Z,8.23
2023-02-05T15:29:01.543Z,7.82
2023-02-05T15:31:33.939Z,7.70
2023-02-05T15:34:28.009Z,6.97
2023-02-05T15:39:44.967Z,8.73
2023-02-05T15:42:18.190Z,8.15
2023-02-05T15:44:44.649Z,8.00
2023-02-05T15:47:18.676Z,8.27
2023-02-05T15:49:48.571Z,8.27
2023-02-05T15:52:21.986Z,8.63
2023-02-05T15:54:50.583Z,8.35
2023-02-05T15:57:27.529Z,8.52
2023-02-05T15:59:55.625Z,9.18
2023-02-05T16:02:27.404Z,9.38
2023-02-05T16:05:09.737Z,9.77
2023-02-05T16:07:41.404Z,10.25
2023-02-05T16:10:25.622Z,9.40
2023-02-05T16:13:15.617Z,8.80
2023-02-05T16:15:52.294Z,9.60
2023-02-05T16:18:40.518Z,9.05
2023-02-05T16:21:18.648Z,7.90
2023-02-05T16:23:57.377Z,5.43
2023-02-05T16:26:31.101Z,5.63
2023-02-05T16:29:02.439Z,4.70
2023-02-05T16:31:30.412Z,4.50
2023-02-05T16:34:04.590Z,5.35
2023-02-05T16:36:38.228Z,5.38
2023-02-05T16:39:14.362Z,4.50
2023-02-05T16:41:42.800Z,6.45
2023-02-05T16:44:27.389Z,4.88
2023-02-05T16:47:13.385Z,4.38
2023-02-05T16:49:40.996Z,4.72
2023-02-05T16:52:42.866Z,4.50
2023-02-05T16:55:14.914Z,4.50
2023-02-05T16:57:41.634Z,4.50
2023-02-05T17:00:34.662Z,5.55
2023-02-05T17:03:16.218Z,4.90
2023-02-05T17:05:42.811Z,4.85
2023-02-05T17:08:12.318Z,4.93
2023-02-05T17:10:59.261Z,4.70
2023-02-05T17:13:40.461Z,4.40
2023-02-05T17:16:30.372Z,3.80
2023-02-05T17:19:22.932Z,3.80
2023-02-05T17:22:15.089Z,4.03
2023-02-05T17:24:47.202Z,3.60
2023-02-05T17:27:24.819Z,4.07
2023-02-05T17:29:51.359Z,4.32
2023-02-05T17:32:19.702Z,3.90
2023-02-05T17:34:47.925Z,4.35
2023-02-05T17:37:14.908Z,4.13
2023-02-05T17:39:41.890Z,4.82
2023-02-05T17:42:21.038Z,4.45
2023-02-05T17:44:47.834Z,4.45
2023-02-05T17:47:14.669Z,5.55
2023-02-05T17:49:42.075Z,4.32
2023-02-05T17:52:09.640Z,4.35
2023-02-05T17:54:36.277Z,4.78
2023-02-05T17:57:22.698Z,4.80
2023-02-05T17:59:49.803Z,5.60
2023-02-05T18:02:16.553Z,5.75
2023-02-05T18:04:44.868Z,5.28
2023-02-05T18:07:23.096Z,5.30
2023-02-05T18:09:49.696Z,5.82
2023-02-05T18:12:16.287Z,5.65
2023-02-05T18:14:42.766Z,5.85
2023-02-05T18:17:09.325Z,5.88
2023-02-05T18:19:35.887Z,6.50
2023-02-05T18:22:02.412Z,6.93
2023-02-05T18:24:29.603Z,6.82
2023-02-05T18:26:56.973Z,6.85
2023-02-05T18:29:23.660Z,6.80
2023-02-05T18:31:50.150Z,7.40
2023-02-05T18:34:16.612Z,6.90
2023-02-05T18:36:43.112Z,7.82
2023-02-05T18:39:10.412Z,7.38
2023-02-05T18:41:38.202Z,8.00
2023-02-05T18:44:05.232Z,7.60
2023-02-05T18:46:32.150Z,8.13
2023-02-05T18:48:58.702Z,8.02
2023-02-05T18:51:25.452Z,8.77
2023-02-05T18:53:52.437Z,10.10
2023-02-05T18:56:23.669Z,10.95
2023-02-05T18:59:01.697Z,12.55
2023-02-05T19:01:38.969Z,10.27
2023-02-05T19:04:18.458Z,9.00
2023-02-05T19:06:52.369Z,8.68
2023-02-05T19:09:24.192Z,8.85
2023-02-05T19:11:51.611Z,9.93
2023-02-05T19:14:20.085Z,9.70
2023-02-05T19:16:48.066Z,8.73
2023-02-05T19:19:17.654Z,8.93
2023-02-05T19:21:49.910Z,10.43
2023-02-05T19:24:18.595Z,8.35
2023-02-05T19:26:45.163Z,8.85
2023-02-05T19:29:15.191Z,9.80
2023-02-05T19:31:42.011Z,10.48
2023-02-05T19:34:08.776Z,7.90
2023-02-05T19:36:35.953Z,7.80
2023-02-05T19:39:04.990Z,7.65
2023-02-05T19:41:34.068Z,6.65
2023-02-05T19:44:04.010Z,6.75
2023-02-05T19:46:33.261Z,6.78
2023-02-05T19:49:02.231Z,7.55
2023-02-05T19:51:29.096Z,6.93
2023-02-05T19:54:00.218Z,7.13
2023-02-05T19:56:26.848Z,5.80
2023-02-05T19:58:55.437Z,5.57
2023-02-05T20:01:27.406Z,5.57
2023-02-05T20:03:57.575Z,5.32
2023-02-05T20:06:28.765Z,5.00
2023-02-05T20:08:56.198Z,4.57
2023-02-05T20:11:22.870Z,4.40
2023-02-05T20:13:49.549Z,4.30
2023-02-05T20:16:21.163Z,5.05
2023-02-05T20:18:56.282Z,4.35
2023-02-05T20:21:23.730Z,4.05
2023-02-05T20:23:50.840Z,5.18
2023-02-05T20:26:22.241Z,4.47
2023-02-05T20:29:14.904Z,4.95
2023-02-05T20:31:46.081Z,4.55
2023-02-05T20:34:21.903Z,4.47
2023-02-05T20:37:04.259Z,4.60
2023-02-05T20:39:33.355Z,4.22
2023-02-05T20:42:00.288Z,4.15
2023-02-05T20:44:29.663Z,4.70
2023-02-05T20:46:57.054Z,4.68
2023-02-05T20:49:24.409Z,5.10
2023-02-05T20:51:52.912Z,4.80
2023-02-05T20:54:19.747Z,5.40
2023-02-05T20:56:46.264Z,5.40
2023-02-05T20:59:12.789Z,4.85
2023-02-05T21:01:40.418Z,6.00
2023-02-05T21:04:09.996Z,5.38
2023-02-05T21:06:39.484Z,7.70
2023-02-05T21:09:07.777Z,7.75
2023-02-05T21:11:34.803Z,7.85
2023-02-05T21:14:03.459Z,6.97
2023-02-05T21:16:30.734Z,6.97
2023-02-05T21:18:57.275Z,7.45
2023-02-05T21:21:27.637Z,7.32
2023-02-05T21:23:59.033Z,7.32
2023-02-05T21:26:31.960Z,7.80
2023-02-05T21:29:01.323Z,7.05
2023-02-05T21:31:33.940Z,7.40
2023-02-05T21:34:05.252Z,6.77
2023-02-05T21:36:33.174Z,7.53
2023-02-05T21:39:00.314Z,6.93
2023-02-05T21:41:27.349Z,7.93
2023-02-05T21:43:59.501Z,7.35
2023-02-05T21:46:29.350Z,8.45
2023-02-05T21:48:57.671Z,7.63
2023-02-05T21:51:26.406Z,7.22
2023-02-05T21:53:58.898Z,7.35
2023-02-05T21:56:34.905Z,9.07
2023-02-05T21:59:01.574Z,8.25
2023-02-05T22:01:30.886Z,8.00
2023-02-05T22:04:00.136Z,7.05
2023-02-05T22:06:30.273Z,8.55
2023-02-05T22:08:58.158Z,7.72
2023-02-05T22:11:25.503Z,7.15
2023-02-05T22:13:53.670Z,7.70
2023-02-05T22:16:21.880Z,7.85
2023-02-05T22:18:48.679Z,8.25
2023-02-05T22:21:17.762Z,6.97
2023-02-05T22:23:49.057Z,6.72
2023-02-05T22:26:19.025Z,7.72
2023-02-05T22:28:46.177Z,7.95
2023-02-05T22:31:15.131Z,8.20
2023-02-05T22:33:44.227Z,7.13
2023-02-05T22:36:12.750Z,8.07
2023-02-05T22:38:40.850Z,8.35
2023-02-05T22:41:13.143Z,8.48
2023-02-05T22:43:40.329Z,8.48
2023-02-05T22:46:08.631Z,7.93
2023-02-05T22:48:36.877Z,8.25
2023-02-05T22:51:05.424Z,9.15
2023-02-05T22:53:32.240Z,7.60
2023-02-05T22:56:04.076Z,7.57
2023-02-05T22:58:31.285Z,7.93
2023-02-05T23:00:58.311Z,8.68
2023-02-05T23:03:25.503Z,8.00
2023-02-05T23:05:52.134Z,7.82
2023-02-05T23:08:18.658Z,8.98
2023-02-05T23:10:45.159Z,7.50
2023-02-05T23:13:11.867Z,8.10
2023-02-05T23:15:38.319Z,8.50
2023-02-05T23:18:04.861Z,8.60
2023-02-05T23:20:32.428Z,8.20
2023-02-05T23:22:58.871Z,7.93
2023-02-05T23:25:25.334Z,7.88
2023-02-05T23:27:51.860Z,7.78
2023-02-05T23:30:18.709Z,8.65
2023-02-05T23:32:45.202Z,7.90
2023-02-05T23:35:11.696Z,7.78
2023-02-05T23:37:38.161Z,8.20
2023-02-05T23:40:04.949Z,8.93
2023-02-05T23:42:31.424Z,8.80
2023-02-05T23:44:57.868Z,8.88
2023-02-05T23:47:24.369Z,8.18
2023-02-05T23:49:50.829Z,9.02
2023-02-05T23:52:17.406Z,9.02
2023-02-05T23:54:43.897Z,9.02
2023-02-05T23:57:10.368Z,8.48
2023-02-05T23:59:36.808Z,8.52
